createdAt,value
2022-09-28T00:04:07.300Z,8.03
2022-09-28T00:09:08.611Z,8.02
2022-09-28T00:14:11.101Z,8.06
2022-09-28T00:19:13.025Z,8.01
2022-09-28T00:24:17.791Z,7.95
2022-09-28T00:29:23.641Z,8.01
2022-09-28T00:34:25.354Z,8.02
2022-09-28T00:39:27.160Z,8.00
2022-09-28T00:44:28.444Z,8.01
2022-09-28T00:49:36.078Z,8.04
2022-09-28T00:54:37.556Z,7.96
2022-09-28T00:59:38.998Z,7.96
2022-09-28T01:04:40.370Z,7.98
2022-09-28T01:09:45.348Z,7.89
2022-09-28T01:14:46.904Z,7.92
2022-09-28T01:20:06.976Z,7.99
2022-09-28T01:25:13.511Z,7.90
2022-09-28T01:30:15.986Z,7.92
2022-09-28T01:35:20.730Z,7.95
2022-09-28T01:40:24.150Z,7.93
2022-09-28T01:45:28.606Z,7.81
2022-09-28T01:50:31.140Z,7.81
2022-09-28T01:55:38.755Z,7.79
2022-09-28T02:00:42.456Z,7.82
2022-09-28T02:05:48.470Z,7.75
2022-09-28T02:10:53.796Z,7.72
2022-09-28T02:16:15.434Z,7.70
2022-09-28T02:21:28.152Z,7.70
2022-09-28T02:26:31.992Z,7.72
2022-09-28T02:31:33.357Z,7.60
2022-09-28T02:36:34.932Z,7.58
2022-09-28T02:41:45.441Z,7.63
2022-09-28T02:46:49.719Z,7.64
2022-09-28T02:51:59.454Z,7.55
2022-09-28T02:57:00.800Z,7.60
2022-09-28T03:02:09.224Z,7.56
2022-09-28T03:07:10.527Z,7.42
2022-09-28T03:12:13.706Z,7.22
2022-09-28T03:17:15.074Z,7.04
2022-09-28T03:22:16.375Z,6.93
2022-09-28T03:27:17.864Z,6.93
2022-09-28T03:32:19.173Z,6.92
2022-09-28T03:37:20.471Z,6.81
2022-09-28T03:42:21.796Z,6.79
2022-09-28T03:47:23.083Z,6.77
2022-09-28T03:52:24.389Z,6.63
2022-09-28T03:57:25.693Z,6.54
2022-09-28T04:02:27.103Z,6.45
2022-09-28T04:07:31.059Z,6.38
2022-09-28T04:12:32.685Z,6.42
2022-09-28T04:17:39.172Z,6.35
2022-09-28T04:22:41.488Z,6.33
2022-09-28T04:28:01.550Z,6.30
2022-09-28T04:33:02.877Z,6.42
2022-09-28T04:38:04.207Z,6.38
2022-09-28T04:43:05.525Z,6.42
2022-09-28T04:48:07.747Z,6.42
2022-09-28T04:53:09.061Z,6.46
2022-09-28T04:58:10.359Z,6.39
2022-09-28T05:03:11.654Z,6.38
2022-09-28T05:08:13.047Z,6.31
2022-09-28T05:13:14.422Z,6.29
2022-09-28T05:18:15.719Z,6.31
2022-09-28T05:23:17.599Z,6.37
2022-09-28T05:28:27.412Z,6.42
2022-09-28T05:33:29.246Z,6.52
2022-09-28T05:38:30.780Z,6.57
2022-09-28T05:43:32.215Z,6.68
2022-09-28T05:48:33.510Z,6.72
2022-09-28T05:53:34.796Z,6.81
2022-09-28T05:58:36.100Z,6.98
2022-09-28T06:03:37.426Z,7.01
2022-09-28T06:08:42.850Z,7.17
2022-09-28T06:13:44.148Z,7.00
2022-09-28T06:18:45.448Z,7.16
2022-09-28T06:23:49.148Z,7.70
2022-09-28T06:28:50.603Z,10.97
2022-09-28T06:33:52.307Z,10.28
2022-09-28T06:38:53.620Z,8.87
2022-09-28T06:43:55.310Z,8.66
2022-09-28T06:48:56.681Z,8.47
2022-09-28T06:53:58.079Z,8.41
2022-09-28T06:58:59.421Z,8.72
2022-09-28T07:04:01.855Z,8.52
2022-09-28T07:09:28.565Z,8.61
2022-09-28T07:14:44.463Z,8.85
2022-09-28T07:19:52.649Z,9.21
2022-09-28T07:24:53.974Z,9.39
2022-09-28T07:29:55.349Z,10.24
2022-09-28T07:34:58.874Z,10.07
2022-09-28T07:40:23.513Z,10.00
2022-09-28T07:45:24.917Z,9.92
2022-09-28T07:50:26.227Z,9.81
2022-09-28T07:55:27.552Z,10.61
2022-09-28T08:00:33.946Z,10.57
2022-09-28T08:05:35.855Z,10.67
2022-09-28T08:10:37.783Z,10.52
2022-09-28T08:15:39.201Z,11.18
2022-09-28T08:20:59.439Z,12.16
2022-09-28T08:26:00.765Z,12.36
2022-09-28T08:31:02.204Z,13.39
2022-09-28T08:36:04.549Z,14.17
2022-09-28T08:41:17.067Z,12.33
2022-09-28T08:46:23.882Z,12.42
2022-09-28T08:51:31.178Z,12.18
2022-09-28T08:56:47.288Z,11.99
2022-09-28T09:01:58.106Z,11.87
2022-09-28T09:07:14.533Z,12.37
2022-09-28T09:12:21.315Z,14.35
2022-09-28T09:17:37.832Z,13.94
2022-09-28T09:22:40.875Z,12.65
2022-09-28T09:27:53.561Z,11.58
2022-09-28T09:33:24.965Z,12.04
2022-09-28T09:38:50.028Z,13.06
2022-09-28T09:44:10.847Z,13.43
2022-09-28T09:49:15.068Z,12.41
2022-09-28T09:54:20.992Z,12.20
2022-09-28T09:59:25.847Z,14.96
2022-09-28T10:04:32.543Z,16.91
2022-09-28T10:09:42.288Z,15.33
2022-09-28T10:14:43.689Z,13.82
2022-09-28T10:19:45.183Z,13.74
2022-09-28T10:24:48.797Z,13.31
2022-09-28T10:29:50.093Z,12.61
2022-09-28T10:34:52.606Z,12.55
2022-09-28T10:39:55.203Z,12.48
2022-09-28T10:45:00.138Z,12.75
2022-09-28T10:50:01.729Z,12.85
2022-09-28T10:55:23.361Z,13.07
2022-09-28T11:00:42.217Z,12.99
2022-09-28T11:05:52.281Z,12.66
2022-09-28T11:11:04.053Z,13.67
2022-09-28T11:16:05.555Z,14.26
2022-09-28T11:21:11.024Z,14.16
2022-09-28T11:26:18.429Z,13.57
2022-09-28T11:31:25.931Z,13.16
2022-09-28T11:36:35.120Z,13.15
2022-09-28T11:41:47.991Z,13.13
2022-09-28T11:46:55.285Z,12.74
2022-09-28T11:51:57.483Z,12.81
2022-09-28T11:57:01.153Z,13.23
2022-09-28T12:02:10.297Z,13.35
2022-09-28T12:07:18.837Z,14.04
2022-09-28T12:12:23.770Z,13.92
2022-09-28T12:17:29.814Z,13.50
2022-09-28T12:22:40.833Z,13.31
2022-09-28T12:27:47.762Z,12.86
2022-09-28T12:32:49.046Z,12.79
2022-09-28T12:37:56.180Z,12.86
2022-09-28T12:42:57.463Z,12.55
2022-09-28T12:48:01.804Z,12.48
2022-09-28T12:53:22.075Z,12.37
2022-09-28T12:58:41.525Z,12.38
2022-09-28T13:03:52.020Z,12.39
2022-09-28T13:08:55.276Z,12.18
2022-09-28T13:14:04.207Z,12.34
2022-09-28T13:19:08.663Z,12.27
2022-09-28T13:24:31.162Z,12.22
2022-09-28T13:29:35.053Z,12.23
2022-09-28T13:34:37.108Z,12.17
2022-09-28T13:39:38.558Z,12.40
2022-09-28T13:44:54.335Z,12.39
2022-09-28T13:50:04.663Z,12.51
2022-09-28T13:55:24.979Z,12.77
2022-09-28T14:00:30.901Z,13.12
2022-09-28T14:05:32.201Z,13.11
2022-09-28T14:10:49.356Z,13.06
2022-09-28T14:15:51.250Z,13.21
2022-09-28T14:21:01.956Z,13.29
2022-09-28T14:26:20.730Z,13.57
2022-09-28T14:31:28.976Z,13.51
2022-09-28T14:36:51.965Z,13.40
2022-09-28T14:41:53.384Z,13.28
2022-09-28T14:47:14.639Z,13.19
2022-09-28T14:52:19.161Z,12.96
2022-09-28T14:57:22.658Z,12.84
2022-09-28T15:02:31.397Z,13.09
2022-09-28T15:07:50.636Z,13.13
2022-09-28T15:12:55.972Z,13.41
2022-09-28T15:18:02.182Z,13.28
2022-09-28T15:23:03.904Z,13.09
2022-09-28T15:28:18.062Z,12.96
2022-09-28T15:33:45.423Z,12.77
2022-09-28T15:38:52.597Z,12.85
2022-09-28T15:44:12.413Z,12.86
2022-09-28T15:49:23.085Z,12.98
2022-09-28T15:54:27.488Z,12.89
2022-09-28T15:59:30.983Z,12.92
2022-09-28T16:04:54.497Z,12.82
2022-09-28T16:09:55.844Z,12.57
2022-09-28T16:14:58.653Z,12.21
2022-09-28T16:20:01.802Z,11.94
2022-09-28T16:25:05.309Z,11.50
2022-09-28T16:30:20.208Z,11.23
2022-09-28T16:35:21.535Z,11.05
2022-09-28T16:40:22.905Z,11.01
2022-09-28T16:45:24.321Z,11.14
2022-09-28T16:50:26.173Z,11.02
2022-09-28T16:55:40.231Z,10.89
2022-09-28T17:00:43.444Z,10.80
2022-09-28T17:05:45.776Z,10.62
2022-09-28T17:11:13.076Z,10.40
2022-09-28T17:16:28.170Z,10.29
2022-09-28T17:21:38.251Z,10.52
2022-09-28T17:26:40.349Z,10.33
2022-09-28T17:31:42.771Z,10.08
2022-09-28T17:36:44.748Z,9.92
2022-09-28T17:41:46.084Z,9.69
2022-09-28T17:46:49.623Z,9.54
2022-09-28T17:51:52.816Z,9.29
2022-09-28T17:56:54.140Z,8.97
2022-09-28T18:01:58.328Z,8.77
2022-09-28T18:07:01.732Z,8.77
2022-09-28T18:12:04.380Z,8.65
2022-09-28T18:17:05.725Z,8.58
2022-09-28T18:22:07.040Z,8.47
2022-09-28T18:27:08.341Z,8.53
2022-09-28T18:32:09.674Z,8.39
2022-09-28T18:37:11.018Z,8.47
2022-09-28T18:42:13.225Z,8.41
2022-09-28T18:47:15.129Z,8.40
2022-09-28T18:52:16.578Z,8.36
2022-09-28T18:57:18.380Z,8.27
2022-09-28T19:02:19.743Z,8.22
2022-09-28T19:07:21.267Z,8.15
2022-09-28T19:12:23.779Z,8.12
2022-09-28T19:17:25.119Z,8.10
2022-09-28T19:22:26.486Z,8.04
2022-09-28T19:27:27.814Z,7.97
2022-09-28T19:32:29.133Z,8.01
2022-09-28T19:37:31.621Z,8.07
2022-09-28T19:42:34.055Z,8.06
2022-09-28T19:47:35.853Z,8.10
2022-09-28T19:52:37.167Z,8.10
2022-09-28T19:57:38.477Z,8.17
2022-09-28T20:02:39.810Z,8.19
2022-09-28T20:07:41.171Z,8.23
2022-09-28T20:12:42.484Z,8.31
2022-09-28T20:17:43.858Z,8.21
2022-09-28T20:22:45.232Z,8.17
2022-09-28T20:27:46.541Z,8.17
2022-09-28T20:32:49.731Z,8.13
2022-09-28T20:37:51.187Z,8.09
2022-09-28T20:42:52.515Z,8.09
2022-09-28T20:47:53.823Z,8.20
2022-09-28T20:52:55.125Z,8.05
2022-09-28T20:57:56.438Z,8.11
2022-09-28T21:02:57.938Z,8.10
2022-09-28T21:07:59.300Z,8.06
2022-09-28T21:13:00.625Z,8.02
2022-09-28T21:18:01.939Z,8.04
2022-09-28T21:23:03.269Z,7.98
2022-09-28T21:28:04.620Z,7.88
2022-09-28T21:33:05.998Z,7.86
2022-09-28T21:38:07.366Z,7.82
2022-09-28T21:43:08.678Z,7.76
2022-09-28T21:48:09.978Z,7.64
2022-09-28T21:53:11.308Z,7.54
2022-09-28T21:58:12.594Z,7.50
2022-09-28T22:03:13.898Z,7.51
2022-09-28T22:08:15.211Z,7.52
2022-09-28T22:13:17.298Z,7.50
2022-09-28T22:18:18.774Z,7.33
2022-09-28T22:23:21.454Z,7.27
2022-09-28T22:28:22.831Z,7.10
2022-09-28T22:33:24.272Z,6.95
2022-09-28T22:38:25.657Z,6.80
2022-09-28T22:43:27.072Z,6.63
2022-09-28T22:48:28.565Z,6.56
2022-09-28T22:53:29.972Z,6.46
2022-09-28T22:58:32.024Z,6.33
2022-09-28T23:03:33.476Z,6.20
2022-09-28T23:08:35.016Z,6.09
2022-09-28T23:13:37.569Z,6.06
2022-09-28T23:18:40.920Z,5.90
2022-09-28T23:23:42.904Z,5.83
2022-09-28T23:28:44.651Z,5.73
2022-09-28T23:33:46.226Z,5.58
2022-09-28T23:38:47.629Z,5.56
2022-09-28T23:43:48.952Z,5.58
2022-09-28T23:48:50.317Z,5.44
2022-09-28T23:53:51.741Z,5.38
2022-09-28T23:58:53.067Z,5.37
